Time;durP1;ratioP1;P1;durP2;ratioP2;P2;SDS_P1;SDS_P2;PMS_P1;PMS_P2;Temp;Humidity;BMP_temperature;BMP_pressure;BME280_temperature;BME280_humidity;BME280_pressure;Samples;Min_cycle;Max_cycle;Signal;HPM_P1;HPM_P2
2024/02/10 00:01:01;;;;;;;;;;;7.70;99.90;;;;;;5028160;28;20345;-64
2024/02/10 00:03:32;;;;;;;;;;;7.70;99.90;;;;;;5029380;28;20047;-64
2024/02/10 00:06:05;;;;;;;;;;;7.70;99.90;;;;;;5031302;28;20424;-64
2024/02/10 00:08:38;;;;;;;;;;;7.70;99.90;;;;;;5014213;28;19952;-64
2024/02/10 00:11:10;;;;;;;;;;;7.70;99.90;;;;;;5030434;28;20336;-64
2024/02/10 00:13:44;;;;;;;;;;;7.70;99.90;;;;;;5029411;28;19936;-64
2024/02/10 00:16:10;;;;;;;;;;;7.70;99.90;;;;;;5028778;28;19927;-64
2024/02/10 00:18:42;;;;;;;;;;;7.70;99.90;;;;;;5029200;28;19961;-64
2024/02/10 00:21:14;;;;;;;;;;;7.70;99.90;;;;;;5029132;28;19968;-64
2024/02/10 00:23:47;;;;;;;;;;;7.70;99.90;;;;;;5030359;28;19925;-64
2024/02/10 00:26:21;;;;;;;;;;;7.60;99.90;;;;;;5028943;28;19951;-64
2024/02/10 00:28:55;;;;;;;;;;;7.60;99.90;;;;;;5027944;28;19968;-64
2024/02/10 00:31:25;;;;;;;;;;;7.60;99.90;;;;;;5028808;28;20015;-64
2024/02/10 00:33:52;;;;;;;;;;;7.70;99.90;;;;;;5025933;28;20406;-64
2024/02/10 00:36:24;;;;;;;;;;;7.70;99.90;;;;;;5030649;28;19921;-65
2024/02/10 00:38:56;;;;;;;;;;;7.70;99.90;;;;;;5027446;28;19922;-64
2024/02/10 00:41:28;;;;;;;;;;;7.70;99.90;;;;;;5027427;28;19924;-64
2024/02/10 00:44:00;;;;;;;;;;;7.70;99.90;;;;;;5027699;28;19964;-64
2024/02/10 00:46:32;;;;;;;;;;;7.70;99.90;;;;;;5011801;28;20380;-64
2024/02/10 00:48:59;;;;;;;;;;;7.70;99.90;;;;;;5007313;28;20448;-64
2024/02/10 00:51:30;;;;;;;;;;;7.70;99.90;;;;;;5028887;28;19931;-64
2024/02/10 00:54:01;;;;;;;;;;;7.60;99.90;;;;;;5029370;28;19933;-64
2024/02/10 00:56:34;;;;;;;;;;;7.60;99.90;;;;;;5011830;28;19967;-64
2024/02/10 00:59:07;;;;;;;;;;;7.60;99.90;;;;;;5028581;28;19925;-64
2024/02/10 01:01:39;;;;;;;;;;;7.60;99.90;;;;;;5025174;28;19921;-64
2024/02/10 01:04:12;;;;;;;;;;;7.60;99.90;;;;;;5029812;28;19929;-64
2024/02/10 01:06:47;;;;;;;;;;;7.60;99.90;;;;;;5028058;28;20324;-64
2024/02/10 01:09:19;;;;;;;;;;;7.60;99.90;;;;;;5028177;28;19921;-64
2024/02/10 01:11:50;;;;;;;;;;;7.50;99.90;;;;;;5027367;28;20393;-64
2024/02/10 01:14:24;;;;;;;;;;;7.50;99.90;;;;;;5027706;28;20367;-64
2024/02/10 01:16:53;;;;;;;;;;;7.40;99.90;;;;;;5027330;28;20385;-64
2024/02/10 01:19:28;;;;;;;;;;;7.40;99.90;;;;;;5026061;28;19927;-64
2024/02/10 01:21:59;;;;;;;;;;;7.40;99.90;;;;;;5024937;28;19929;-64
2024/02/10 01:24:31;;;;;;;;;;;7.40;99.90;;;;;;5033598;28;19931;-64
2024/02/10 01:27:05;;;;;;;;;;;7.40;99.90;;;;;;5026700;28;19975;-64
2024/02/10 01:29:31;;;;;;;;;;;7.30;99.90;;;;;;5030461;28;19978;-64
2024/02/10 01:32:05;;;;;;;;;;;7.30;99.90;;;;;;5028750;28;19921;-64
2024/02/10 01:34:38;;;;;;;;;;;7.20;99.90;;;;;;5026006;28;19976;-64
2024/02/10 01:37:12;;;;;;;;;;;7.20;99.90;;;;;;5010951;28;19975;-64
2024/02/10 01:39:45;;;;;;;;;;;7.20;99.90;;;;;;5028427;28;19995;-64
2024/02/10 01:42:22;;;;;;;;;;;7.20;99.90;;;;;;5024708;28;19921;-64
2024/02/10 01:44:54;;;;;;;;;;;7.20;99.90;;;;;;5008747;28;19936;-64
2024/02/10 01:47:26;;;;;;;;;;;7.10;99.90;;;;;;5028183;28;19932;-64
2024/02/10 01:49:52;;;;;;;;;;;7.10;99.90;;;;;;5003495;28;19925;-64
2024/02/10 01:52:24;;;;;;;;;;;7.10;99.90;;;;;;5002429;28;20536;-64
2024/02/10 01:54:51;;;;;;;;;;;7.10;99.90;;;;;;5028226;28;19928;-64
2024/02/10 01:57:18;;;;;;;;;;;7.10;99.90;;;;;;5026498;28;20396;-64
2024/02/10 01:59:51;;;;;;;;;;;7.10;99.90;;;;;;5027083;28;19925;-64
2024/02/10 02:02:22;;;;;;;;;;;7.00;99.90;;;;;;5027219;28;20500;-64
2024/02/10 02:04:56;;;;;;;;;;;7.00;99.90;;;;;;5028530;28;20419;-64
2024/02/10 02:07:30;;;;;;;;;;;7.00;99.90;;;;;;5022325;28;19990;-64
2024/02/10 02:10:03;;;;;;;;;;;7.00;99.90;;;;;;5030877;28;20463;-64
2024/02/10 02:12:31;;;;;;;;;;;7.10;99.90;;;;;;5030433;28;19925;-64
2024/02/10 02:15:03;;;;;;;;;;;7.00;99.90;;;;;;5027221;28;19935;-64
2024/02/10 02:17:37;;;;;;;;;;;7.00;99.90;;;;;;5032970;28;19925;-64
2024/02/10 02:20:10;;;;;;;;;;;7.00;99.90;;;;;;5012394;28;19928;-64
2024/02/10 02:22:48;;;;;;;;;;;6.90;99.90;;;;;;5031573;28;20477;-64
2024/02/10 02:25:20;;;;;;;;;;;6.90;99.90;;;;;;5031901;28;20286;-64
2024/02/10 02:27:52;;;;;;;;;;;6.90;99.90;;;;;;5014372;28;19960;-64
2024/02/10 02:30:19;;;;;;;;;;;6.90;99.90;;;;;;5031525;28;19931;-64
2024/02/10 02:32:51;;;;;;;;;;;6.90;99.90;;;;;;5015604;28;20468;-64
2024/02/10 02:35:23;;;;;;;;;;;6.90;99.90;;;;;;5020866;28;19983;-64
2024/02/10 02:37:58;;;;;;;;;;;6.90;99.90;;;;;;5027310;28;19931;-64
2024/02/10 02:40:30;;;;;;;;;;;7.00;99.90;;;;;;5000783;28;19921;-64
2024/02/10 02:43:02;;;;;;;;;;;6.90;99.90;;;;;;5028262;28;19927;-64
2024/02/10 02:45:34;;;;;;;;;;;6.90;99.90;;;;;;5029456;28;19924;-64
2024/02/10 02:48:06;;;;;;;;;;;6.90;99.90;;;;;;5005251;28;19972;-64
2024/02/10 02:50:40;;;;;;;;;;;6.90;99.90;;;;;;5031601;28;20300;-64
2024/02/10 02:53:11;;;;;;;;;;;6.80;99.90;;;;;;5031110;28;19952;-64
2024/02/10 02:55:45;;;;;;;;;;;6.80;99.90;;;;;;5028908;28;19940;-64
2024/02/10 02:58:18;;;;;;;;;;;6.80;99.90;;;;;;5031232;28;19968;-64
2024/02/10 03:00:48;;;;;;;;;;;6.80;99.90;;;;;;5030493;28;20393;-64
2024/02/10 03:03:19;;;;;;;;;;;6.70;99.90;;;;;;5006384;28;19921;-64
2024/02/10 03:05:52;;;;;;;;;;;6.70;99.90;;;;;;5031776;28;19946;-64
2024/02/10 03:08:26;;;;;;;;;;;6.70;99.90;;;;;;5026438;28;19929;-64
2024/02/10 03:10:59;;;;;;;;;;;6.70;99.90;;;;;;5030573;28;19925;-64
2024/02/10 03:13:32;;;;;;;;;;;6.80;99.90;;;;;;5029650;28;19921;-64
2024/02/10 03:16:04;;;;;;;;;;;6.80;99.90;;;;;;5027765;28;19920;-64
2024/02/10 03:18:42;;;;;;;;;;;6.80;99.90;;;;;;5025050;28;20012;-64
2024/02/10 03:21:23;;;;;;;;;;;6.80;99.90;;;;;;5026897;28;19921;-64
2024/02/10 03:23:49;;;;;;;;;;;6.80;99.90;;;;;;5028759;28;19925;-64
2024/02/10 03:26:21;;;;;;;;;;;6.80;99.90;;;;;;5028829;28;19931;-64
2024/02/10 03:28:54;;;;;;;;;;;6.80;99.90;;;;;;5001388;28;19964;-64
2024/02/10 03:31:26;;;;;;;;;;;6.80;99.90;;;;;;5026090;28;19921;-65
2024/02/10 03:33:58;;;;;;;;;;;6.80;99.90;;;;;;5027957;28;19928;-64
2024/02/10 03:36:30;;;;;;;;;;;6.70;99.90;;;;;;5006389;28;19921;-64
2024/02/10 03:39:04;;;;;;;;;;;6.70;99.90;;;;;;5024823;28;19925;-64
2024/02/10 03:41:30;;;;;;;;;;;6.60;99.90;;;;;;5030240;28;20378;-64
2024/02/10 03:44:02;;;;;;;;;;;6.70;99.90;;;;;;5028714;28;19927;-64
2024/02/10 03:46:34;;;;;;;;;;;6.60;99.90;;;;;;5011986;28;19927;-64
2024/02/10 03:49:06;;;;;;;;;;;6.70;99.90;;;;;;5028011;28;19956;-64
2024/02/10 03:51:39;;;;;;;;;;;6.60;99.90;;;;;;5029580;28;19932;-64
2024/02/10 03:54:12;;;;;;;;;;;6.70;99.90;;;;;;5028337;28;20038;-64
2024/02/10 03:56:46;;;;;;;;;;;6.60;99.90;;;;;;5028462;28;19924;-64
2024/02/10 03:59:18;;;;;;;;;;;6.60;99.90;;;;;;5031415;28;19921;-64
2024/02/10 04:01:50;;;;;;;;;;;6.70;99.90;;;;;;5027717;28;19921;-64
2024/02/10 04:04:21;;;;;;;;;;;6.60;99.90;;;;;;5030750;28;19929;-64
2024/02/10 04:06:48;;;;;;;;;;;6.70;99.90;;;;;;5030705;28;19921;-64
2024/02/10 04:09:21;;;;;;;;;;;6.60;99.90;;;;;;5026706;28;19921;-64
2024/02/10 04:11:47;;;;;;;;;;;6.60;99.90;;;;;;5030601;28;19921;-64
2024/02/10 04:14:20;;;;;;;;;;;6.60;99.90;;;;;;5029330;28;19931;-64
2024/02/10 04:16:52;;;;;;;;;;;6.60;99.90;;;;;;5009214;28;19921;-64
2024/02/10 04:19:19;;;;;;;;;;;6.60;99.90;;;;;;5025846;28;19925;-64
2024/02/10 04:21:51;;;;;;;;;;;6.50;99.90;;;;;;5030351;28;19932;-64
2024/02/10 04:24:23;;;;;;;;;;;6.40;99.90;;;;;;5028823;28;19925;-64
2024/02/10 04:26:50;;;;;;;;;;;6.40;99.90;;;;;;5027442;28;19921;-64
2024/02/10 04:29:16;;;;;;;;;;;6.30;99.90;;;;;;5030684;28;19929;-64
2024/02/10 04:31:53;;;;;;;;;;;6.40;99.90;;;;;;5029271;28;19925;-64
2024/02/10 04:34:30;;;;;;;;;;;6.40;99.90;;;;;;5030578;28;19956;-64
2024/02/10 04:37:02;;;;;;;;;;;6.30;99.90;;;;;;5010401;28;20311;-64
2024/02/10 04:39:36;;;;;;;;;;;6.20;99.90;;;;;;5022253;28;19921;-64
2024/02/10 04:42:08;;;;;;;;;;;6.20;99.90;;;;;;5012339;28;19928;-64
2024/02/10 04:44:40;;;;;;;;;;;6.20;99.90;;;;;;5029377;28;19921;-64
2024/02/10 04:47:12;;;;;;;;;;;6.20;99.90;;;;;;5009959;28;20400;-64
2024/02/10 04:49:44;;;;;;;;;;;6.30;99.90;;;;;;5026349;28;19921;-64
2024/02/10 04:52:18;;;;;;;;;;;6.30;99.90;;;;;;4985214;28;19960;-64
2024/02/10 04:54:53;;;;;;;;;;;6.20;99.90;;;;;;5030223;28;19921;-64
2024/02/10 04:57:28;;;;;;;;;;;6.20;99.90;;;;;;5025476;28;20402;-64
2024/02/10 05:00:12;;;;;;;;;;;6.20;99.90;;;;;;5019007;28;19936;-64
2024/02/10 05:02:47;;;;;;;;;;;6.20;99.90;;;;;;5029161;28;20385;-64
2024/02/10 05:05:20;;;;;;;;;;;6.20;99.90;;;;;;5020327;28;19965;-64
2024/02/10 05:07:56;;;;;;;;;;;6.20;99.90;;;;;;5028832;28;19925;-64
2024/02/10 05:10:23;;;;;;;;;;;6.20;99.90;;;;;;5030511;28;20012;-64
2024/02/10 05:12:56;;;;;;;;;;;6.30;99.90;;;;;;5027339;28;20008;-64
2024/02/10 05:15:23;;;;;;;;;;;6.30;99.90;;;;;;5028843;28;20393;-64
2024/02/10 05:17:55;;;;;;;;;;;6.30;99.90;;;;;;5024845;28;20328;-64
2024/02/10 05:20:27;;;;;;;;;;;6.30;99.90;;;;;;5011082;28;19925;-64
2024/02/10 05:23:00;;;;;;;;;;;6.30;99.90;;;;;;5029943;28;20278;-64
2024/02/10 05:25:34;;;;;;;;;;;6.30;99.90;;;;;;5025517;28;19925;-64
2024/02/10 05:28:06;;;;;;;;;;;6.20;99.90;;;;;;5027312;28;19929;-64
2024/02/10 05:30:33;;;;;;;;;;;6.20;99.90;;;;;;5030288;28;19921;-64
2024/02/10 05:33:01;;;;;;;;;;;6.20;99.90;;;;;;5028074;28;19983;-64
2024/02/10 05:35:33;;;;;;;;;;;6.20;99.90;;;;;;5011306;28;19998;-65
2024/02/10 05:38:05;;;;;;;;;;;6.20;99.90;;;;;;5009362;28;19928;-64
2024/02/10 05:40:37;;;;;;;;;;;6.20;99.90;;;;;;5029743;28;20300;-64
2024/02/10 05:43:08;;;;;;;;;;;6.20;99.90;;;;;;5007916;28;19925;-64
2024/02/10 05:45:40;;;;;;;;;;;6.20;99.90;;;;;;5027314;28;19925;-64
2024/02/10 05:48:12;;;;;;;;;;;6.20;99.90;;;;;;5029391;28;19921;-64
2024/02/10 05:50:44;;;;;;;;;;;6.20;99.90;;;;;;5025988;28;19929;-64
2024/02/10 05:53:16;;;;;;;;;;;6.20;99.90;;;;;;5027713;28;19925;-64
2024/02/10 05:55:48;;;;;;;;;;;6.20;99.90;;;;;;5006493;28;19927;-64
2024/02/10 05:58:23;;;;;;;;;;;6.20;99.90;;;;;;4993691;28;19936;-64
2024/02/10 06:00:54;;;;;;;;;;;6.10;99.90;;;;;;5029288;28;19921;-64
2024/02/10 06:03:29;;;;;;;;;;;6.10;99.90;;;;;;5012971;28;19920;-63
2024/02/10 06:05:56;;;;;;;;;;;6.10;99.90;;;;;;5028115;28;20657;-64
2024/02/10 06:08:23;;;;;;;;;;;6.10;99.90;;;;;;5030624;28;20008;-64
2024/02/10 06:10:56;;;;;;;;;;;6.10;99.90;;;;;;5006453;28;19968;-64
2024/02/10 06:13:25;;;;;;;;;;;6.10;99.90;;;;;;5024255;28;20011;-64
2024/02/10 06:15:57;;;;;;;;;;;6.10;99.90;;;;;;5026284;28;19932;-64
2024/02/10 06:18:33;;;;;;;;;;;6.00;99.90;;;;;;5029761;28;19949;-64
2024/02/10 06:21:00;;;;;;;;;;;6.00;99.90;;;;;;5026187;28;20308;-64
2024/02/10 06:23:33;;;;;;;;;;;6.00;99.90;;;;;;5011712;28;20321;-64
2024/02/10 06:26:10;;;;;;;;;;;5.90;99.90;;;;;;5029791;28;19924;-64
2024/02/10 06:28:42;;;;;;;;;;;5.80;99.90;;;;;;5029193;28;19924;-64
2024/02/10 06:31:14;;;;;;;;;;;5.80;99.90;;;;;;5028584;28;20385;-64
2024/02/10 06:33:48;;;;;;;;;;;5.80;99.90;;;;;;5023285;28;20419;-64
2024/02/10 06:36:19;;;;;;;;;;;5.80;99.90;;;;;;5024258;28;19925;-64
2024/02/10 06:38:46;;;;;;;;;;;5.70;99.90;;;;;;5025682;28;19947;-64
2024/02/10 06:41:18;;;;;;;;;;;5.70;99.90;;;;;;5011754;28;19921;-64
2024/02/10 06:43:50;;;;;;;;;;;5.70;99.90;;;;;;5025763;28;20004;-64
2024/02/10 06:46:17;;;;;;;;;;;5.80;99.90;;;;;;4991943;28;19929;-64
2024/02/10 06:48:48;;;;;;;;;;;5.70;99.90;;;;;;5028687;28;19924;-64
2024/02/10 06:51:15;;;;;;;;;;;5.70;99.90;;;;;;5012684;28;19967;-64
2024/02/10 06:53:47;;;;;;;;;;;5.70;99.90;;;;;;5033106;28;19929;-64
2024/02/10 06:56:20;;;;;;;;;;;5.70;99.90;;;;;;5009353;28;19964;-64
2024/02/10 06:58:52;;;;;;;;;;;5.70;99.90;;;;;;5032781;28;19921;-66
2024/02/10 07:01:24;;;;;;;;;;;5.70;99.90;;;;;;5011647;28;19928;-64
2024/02/10 07:03:57;;;;;;;;;;;5.70;99.90;;;;;;5008407;28;20407;-64
2024/02/10 07:06:27;;;;;;;;;;;5.70;99.90;;;;;;5033726;28;20377;-64
2024/02/10 07:09:03;;;;;;;;;;;5.70;99.90;;;;;;5029711;28;20389;-64
2024/02/10 07:11:35;;;;;;;;;;;5.70;99.90;;;;;;5006083;28;19921;-64
2024/02/10 07:14:08;;;;;;;;;;;5.70;99.90;;;;;;5029102;28;20294;-64
2024/02/10 07:16:39;;;;;;;;;;;5.70;99.90;;;;;;5009181;28;20333;-64
2024/02/10 07:19:12;;;;;;;;;;;5.80;99.90;;;;;;5018436;28;19964;-64
2024/02/10 07:21:45;;;;;;;;;;;5.80;99.90;;;;;;5031012;28;19921;-64
2024/02/10 07:24:16;;;;;;;;;;;5.80;99.90;;;;;;5030405;28;20029;-64
2024/02/10 07:26:50;;;;;;;;;;;5.80;99.90;;;;;;5030172;28;20377;-64
2024/02/10 07:29:17;;;;;;;;;;;5.90;99.90;;;;;;5030541;28;20032;-64
2024/02/10 07:31:48;;;;;;;;;;;5.90;99.90;;;;;;5026620;28;19921;-64
2024/02/10 07:34:20;;;;;;;;;;;5.90;99.90;;;;;;5031194;28;19925;-64
2024/02/10 07:36:55;;;;;;;;;;;5.90;99.90;;;;;;5032858;28;20312;-64
2024/02/10 07:39:27;;;;;;;;;;;6.00;99.90;;;;;;5027450;28;19925;-64
2024/02/10 07:42:01;;;;;;;;;;;6.00;99.90;;;;;;4994017;28;19921;-64
2024/02/10 07:44:34;;;;;;;;;;;6.00;99.90;;;;;;5031525;28;19921;-64
2024/02/10 07:47:06;;;;;;;;;;;6.00;99.90;;;;;;5011109;28;20455;-64
2024/02/10 07:49:38;;;;;;;;;;;6.10;99.90;;;;;;5002086;28;19925;-64
2024/02/10 07:52:12;;;;;;;;;;;6.10;99.90;;;;;;5005551;28;20284;-64
2024/02/10 07:54:46;;;;;;;;;;;6.10;99.90;;;;;;5024158;28;20021;-64
2024/02/10 07:57:21;;;;;;;;;;;6.20;99.90;;;;;;5027596;28;20337;-64
2024/02/10 07:59:53;;;;;;;;;;;6.20;99.90;;;;;;5029754;28;19927;-64
2024/02/10 08:02:26;;;;;;;;;;;6.20;99.90;;;;;;5006557;28;20304;-64
2024/02/10 08:04:58;;;;;;;;;;;6.20;99.90;;;;;;5028130;28;19929;-64
2024/02/10 08:07:30;;;;;;;;;;;6.20;99.90;;;;;;5030125;28;19929;-64
2024/02/10 08:10:06;;;;;;;;;;;6.20;99.90;;;;;;5027716;28;19967;-64
2024/02/10 08:12:38;;;;;;;;;;;6.20;99.90;;;;;;5006498;28;19925;-65
2024/02/10 08:15:10;;;;;;;;;;;6.20;99.90;;;;;;5030541;28;20028;-64
2024/02/10 08:17:43;;;;;;;;;;;6.20;99.90;;;;;;5028828;28;20360;-64
2024/02/10 08:20:10;;;;;;;;;;;6.20;99.90;;;;;;5027455;28;20460;-64
2024/02/10 08:22:42;;;;;;;;;;;6.20;99.90;;;;;;5029360;28;19925;-64
2024/02/10 08:25:14;;;;;;;;;;;6.20;99.90;;;;;;5025194;28;19971;-63
2024/02/10 08:27:46;;;;;;;;;;;6.20;99.90;;;;;;5028956;28;20347;-64
2024/02/10 08:30:18;;;;;;;;;;;6.20;99.90;;;;;;5027826;28;19931;-64
2024/02/10 08:32:45;;;;;;;;;;;6.30;99.90;;;;;;5015112;28;20288;-64
2024/02/10 08:35:17;;;;;;;;;;;6.30;99.90;;;;;;5028285;28;19947;-64
2024/02/10 08:37:49;;;;;;;;;;;6.30;99.90;;;;;;5029165;28;19978;-64
2024/02/10 08:40:21;;;;;;;;;;;6.40;99.90;;;;;;5030072;28;19921;-64
2024/02/10 08:42:53;;;;;;;;;;;6.50;99.90;;;;;;5012582;28;19921;-64
2024/02/10 08:45:25;;;;;;;;;;;6.60;99.90;;;;;;5012820;28;19925;-64
2024/02/10 08:48:00;;;;;;;;;;;6.70;99.90;;;;;;5010192;28;20352;-64
2024/02/10 08:50:32;;;;;;;;;;;6.70;99.90;;;;;;5028426;28;19921;-64
2024/02/10 08:53:03;;;;;;;;;;;6.70;99.90;;;;;;5030878;28;19996;-64
2024/02/10 08:55:35;;;;;;;;;;;6.70;99.90;;;;;;5019855;28;20016;-64
2024/02/10 08:58:08;;;;;;;;;;;6.70;99.90;;;;;;5008295;28;19920;-64
2024/02/10 09:00:40;;;;;;;;;;;6.70;99.90;;;;;;5030702;28;20588;-64
2024/02/10 09:03:13;;;;;;;;;;;6.80;99.90;;;;;;5029799;28;19921;-64
2024/02/10 09:05:45;;;;;;;;;;;6.80;99.90;;;;;;5031644;28;19983;-64
2024/02/10 09:08:17;;;;;;;;;;;6.80;99.90;;;;;;5032114;28;19921;-64
2024/02/10 09:10:49;;;;;;;;;;;6.80;99.90;;;;;;4998798;28;19928;-64
2024/02/10 09:13:21;;;;;;;;;;;6.80;99.90;;;;;;5002992;28;19928;-64
2024/02/10 09:15:52;;;;;;;;;;;6.80;99.90;;;;;;5030089;28;19924;-65
2024/02/10 09:18:24;;;;;;;;;;;6.80;99.90;;;;;;5031426;28;20000;-64
2024/02/10 09:20:56;;;;;;;;;;;6.80;99.90;;;;;;5031008;28;19952;-65
2024/02/10 09:23:23;;;;;;;;;;;6.90;99.90;;;;;;5029051;28;19924;-64
2024/02/10 09:25:55;;;;;;;;;;;6.90;99.90;;;;;;5028700;28;19963;-64
2024/02/10 09:28:29;;;;;;;;;;;6.90;99.90;;;;;;5029385;28;19928;-64
2024/02/10 09:30:55;;;;;;;;;;;6.90;99.90;;;;;;5018749;28;19920;-65
2024/02/10 09:33:28;;;;;;;;;;;6.80;99.90;;;;;;5029652;28;19960;-64
2024/02/10 09:35:55;;;;;;;;;;;6.90;99.90;;;;;;5026443;28;20300;-65
2024/02/10 09:38:26;;;;;;;;;;;6.90;99.90;;;;;;5008945;28;19925;-65
2024/02/10 09:40:58;;;;;;;;;;;7.00;99.90;;;;;;5031472;28;19929;-65
2024/02/10 09:43:33;;;;;;;;;;;7.00;99.90;;;;;;5012879;28;19920;-64
2024/02/10 09:46:02;;;;;;;;;;;7.00;99.90;;;;;;5031798;28;20023;-64
2024/02/10 09:48:36;;;;;;;;;;;7.00;99.90;;;;;;5007963;28;20401;-64
2024/02/10 09:51:08;;;;;;;;;;;7.10;99.90;;;;;;5028781;28;20664;-64
2024/02/10 09:53:35;;;;;;;;;;;7.20;99.90;;;;;;5008533;28;19947;-64
2024/02/10 09:56:10;;;;;;;;;;;7.20;99.90;;;;;;5031407;28;19920;-64
2024/02/10 09:58:39;;;;;;;;;;;7.20;99.90;;;;;;5031251;28;19936;-64
2024/02/10 10:01:08;;;;;;;;;;;7.20;99.90;;;;;;5030200;28;20456;-64
2024/02/10 10:03:36;;;;;;;;;;;7.20;99.90;;;;;;5012887;28;19948;-64
2024/02/10 10:06:05;;;;;;;;;;;7.10;99.90;;;;;;5021375;28;19920;-64
2024/02/10 10:08:38;;;;;;;;;;;7.10;99.90;;;;;;5030403;28;20006;-64
2024/02/10 10:11:11;;;;;;;;;;;7.10;99.90;;;;;;5029792;28;19925;-66
2024/02/10 10:13:46;;;;;;;;;;;7.20;99.90;;;;;;5007628;28;20300;-64
2024/02/10 10:16:17;;;;;;;;;;;7.20;99.90;;;;;;5028667;28;20014;-65
2024/02/10 10:18:57;;;;;;;;;;;7.20;99.90;;;;;;5002767;28;19928;-64
2024/02/10 10:21:32;;;;;;;;;;;7.20;99.90;;;;;;5010607;28;19924;-64
2024/02/10 10:24:04;;;;;;;;;;;7.20;99.90;;;;;;5027453;28;20567;-64
2024/02/10 10:26:36;;;;;;;;;;;7.20;99.90;;;;;;5029894;28;19932;-64
2024/02/10 10:29:10;;;;;;;;;;;7.20;99.90;;;;;;5034416;28;19927;-65
2024/02/10 10:31:44;;;;;;;;;;;7.20;99.90;;;;;;5033042;28;19929;-64
2024/02/10 10:34:19;;;;;;;;;;;7.20;99.90;;;;;;5034291;28;19947;-64
2024/02/10 10:36:49;;;;;;;;;;;7.20;99.90;;;;;;5032015;28;19935;-64
2024/02/10 10:39:17;;;;;;;;;;;7.20;99.90;;;;;;5033739;28;19979;-64
2024/02/10 10:41:45;;;;;;;;;;;7.20;99.90;;;;;;5031965;28;20393;-64
2024/02/10 10:44:17;;;;;;;;;;;7.20;99.90;;;;;;5014538;28;19921;-64
2024/02/10 10:46:51;;;;;;;;;;;7.30;99.90;;;;;;5013091;28;20035;-64
2024/02/10 10:49:23;;;;;;;;;;;7.30;99.90;;;;;;5013899;28;19960;-65
2024/02/10 10:52:01;;;;;;;;;;;7.40;99.90;;;;;;5032956;28;19944;-64
2024/02/10 10:54:33;;;;;;;;;;;7.40;99.90;;;;;;5031179;28;20510;-64
2024/02/10 10:57:12;;;;;;;;;;;7.50;99.90;;;;;;5008673;28;19928;-64
2024/02/10 10:59:40;;;;;;;;;;;7.50;99.90;;;;;;5031801;28;19935;-66
2024/02/10 11:02:12;;;;;;;;;;;7.60;99.90;;;;;;5030939;28;20042;-65
2024/02/10 11:04:39;;;;;;;;;;;7.60;99.90;;;;;;5030113;28;19929;-64
2024/02/10 11:07:09;;;;;;;;;;;7.70;99.90;;;;;;5032047;28;19961;-64
2024/02/10 11:09:51;;;;;;;;;;;7.70;99.90;;;;;;5008586;28;19999;-65
2024/02/10 11:12:23;;;;;;;;;;;7.80;99.90;;;;;;5031172;28;20412;-65
2024/02/10 11:14:56;;;;;;;;;;;7.90;99.90;;;;;;5014745;28;19931;-64
2024/02/10 11:17:24;;;;;;;;;;;7.90;99.90;;;;;;5033656;28;20283;-64
2024/02/10 11:20:07;;;;;;;;;;;8.00;99.90;;;;;;5032149;28;19921;-65
2024/02/10 11:22:44;;;;;;;;;;;8.00;99.90;;;;;;5010076;28;20408;-64
2024/02/10 11:25:18;;;;;;;;;;;8.10;99.90;;;;;;5029121;28;19921;-64
2024/02/10 11:27:50;;;;;;;;;;;8.20;99.90;;;;;;5035121;28;20304;-64
2024/02/10 11:30:22;;;;;;;;;;;8.30;99.90;;;;;;5029333;28;19925;-64
2024/02/10 11:32:49;;;;;;;;;;;8.40;99.90;;;;;;5027000;28;19924;-64
2024/02/10 11:35:20;;;;;;;;;;;8.50;99.90;;;;;;5030878;28;19921;-64
2024/02/10 11:37:47;;;;;;;;;;;8.50;99.90;;;;;;5030442;28;19921;-65
2024/02/10 11:40:15;;;;;;;;;;;8.60;99.90;;;;;;5032224;28;20003;-64
2024/02/10 11:42:47;;;;;;;;;;;8.70;99.90;;;;;;5028644;28;19935;-64
2024/02/10 11:45:17;;;;;;;;;;;8.80;99.90;;;;;;5026657;28;19925;-64
2024/02/10 11:47:50;;;;;;;;;;;8.80;99.90;;;;;;5032114;28;20015;-65
2024/02/10 11:50:22;;;;;;;;;;;8.90;99.90;;;;;;5009375;28;19921;-64
2024/02/10 11:52:59;;;;;;;;;;;9.00;99.90;;;;;;5031416;28;19990;-64
2024/02/10 11:55:33;;;;;;;;;;;9.10;99.90;;;;;;5033785;28;19967;-64
2024/02/10 11:58:00;;;;;;;;;;;9.20;99.90;;;;;;5029724;28;19925;-64
2024/02/10 12:00:32;;;;;;;;;;;9.30;99.90;;;;;;5030037;28;19921;-65
2024/02/10 12:02:59;;;;;;;;;;;9.40;99.90;;;;;;5028505;28;19932;-68
2024/02/10 12:05:34;;;;;;;;;;;9.50;99.90;;;;;;5030330;28;19928;-65
2024/02/10 12:08:07;;;;;;;;;;;9.60;99.90;;;;;;5019212;28;19921;-64
2024/02/10 12:10:39;;;;;;;;;;;9.70;99.90;;;;;;5028534;28;19936;-64
2024/02/10 12:13:11;;;;;;;;;;;9.80;99.90;;;;;;5026945;28;19928;-64
2024/02/10 12:15:43;;;;;;;;;;;10.00;99.90;;;;;;5029560;28;19925;-64
2024/02/10 12:18:17;;;;;;;;;;;10.00;99.90;;;;;;5027737;28;19921;-64
2024/02/10 12:20:51;;;;;;;;;;;10.00;99.90;;;;;;5025590;28;19927;-64
2024/02/10 12:23:18;;;;;;;;;;;10.10;99.90;;;;;;5025570;28;19931;-64
2024/02/10 12:25:51;;;;;;;;;;;10.20;99.90;;;;;;5029430;28;20308;-64
2024/02/10 12:28:23;;;;;;;;;;;10.30;99.90;;;;;;5031679;28;19925;-64
2024/02/10 12:30:50;;;;;;;;;;;10.40;99.90;;;;;;5033212;28;19925;-64
2024/02/10 12:33:24;;;;;;;;;;;10.50;99.90;;;;;;5031778;28;19931;-64
2024/02/10 12:35:56;;;;;;;;;;;10.60;99.90;;;;;;5030120;28;20308;-64
2024/02/10 12:38:25;;;;;;;;;;;10.60;99.90;;;;;;5021838;28;20020;-64
2024/02/10 12:40:57;;;;;;;;;;;10.70;99.90;;;;;;5027200;28;20407;-64
2024/02/10 12:43:28;;;;;;;;;;;10.80;99.90;;;;;;5028926;28;19928;-64
2024/02/10 12:46:00;;;;;;;;;;;10.90;99.90;;;;;;5023314;28;19925;-64
2024/02/10 12:48:32;;;;;;;;;;;10.90;99.90;;;;;;5025019;28;20568;-64
2024/02/10 12:50:58;;;;;;;;;;;11.00;99.90;;;;;;5030717;28;19928;-63
2024/02/10 12:53:28;;;;;;;;;;;11.00;99.90;;;;;;5027416;28;19929;-64
2024/02/10 12:55:55;;;;;;;;;;;11.10;99.90;;;;;;5031980;28;19924;-64
2024/02/10 12:58:26;;;;;;;;;;;11.10;99.90;;;;;;5019509;28;19928;-64
2024/02/10 13:00:58;;;;;;;;;;;11.10;99.90;;;;;;5032320;28;19927;-64
2024/02/10 13:03:30;;;;;;;;;;;11.20;99.90;;;;;;5012824;28;20024;-64
2024/02/10 13:06:00;;;;;;;;;;;11.20;99.90;;;;;;5031569;28;19921;-64
2024/02/10 13:08:32;;;;;;;;;;;11.30;99.90;;;;;;5028860;28;19921;-64
2024/02/10 13:11:04;;;;;;;;;;;11.30;99.90;;;;;;5028514;28;19992;-64
2024/02/10 13:13:36;;;;;;;;;;;11.30;99.90;;;;;;5027605;28;19925;-64
2024/02/10 13:16:03;;;;;;;;;;;11.30;99.90;;;;;;5011919;28;20368;-64
2024/02/10 13:18:30;;;;;;;;;;;11.30;99.90;;;;;;5013276;28;19951;-64
2024/02/10 13:20:57;;;;;;;;;;;11.40;99.90;;;;;;5026375;28;19925;-64
2024/02/10 13:23:28;;;;;;;;;;;11.40;99.90;;;;;;5028442;28;19943;-64
2024/02/10 13:25:57;;;;;;;;;;;11.40;99.90;;;;;;5028035;28;20410;-64
2024/02/10 13:28:30;;;;;;;;;;;11.40;99.90;;;;;;5011578;28;19924;-64
2024/02/10 13:30:57;;;;;;;;;;;11.40;99.90;;;;;;5030586;28;20012;-64
2024/02/10 13:33:24;;;;;;;;;;;11.40;99.90;;;;;;5030527;28;19921;-64
2024/02/10 13:35:55;;;;;;;;;;;11.40;99.90;;;;;;5030043;28;20014;-64
2024/02/10 14:00:46;;;;;;;;;;;11.30;99.90;;;;;;5028541;28;19986;-64
2024/02/10 14:03:18;;;;;;;;;;;11.30;99.90;;;;;;5011342;28;19925;-64
2024/02/10 14:08:36;;;;;;;;;;;11.30;99.90;;;;;;5033371;28;19921;-64
2024/02/10 14:11:17;;;;;;;;;;;11.30;99.90;;;;;;5013784;28;20008;-64
2024/02/10 14:13:53;;;;;;;;;;;11.30;99.90;;;;;;5018259;28;19921;-64
2024/02/10 14:16:29;;;;;;;;;;;11.30;99.90;;;;;;5011636;28;20382;-64
2024/02/10 14:19:05;;;;;;;;;;;11.30;99.90;;;;;;5029249;28;19928;-64
2024/02/10 14:21:43;;;;;;;;;;;11.30;99.90;;;;;;5032875;28;19925;-64
2024/02/10 14:24:18;;;;;;;;;;;11.30;99.90;;;;;;5032028;28;20012;-64
2024/02/10 14:27:00;;;;;;;;;;;11.30;99.90;;;;;;5033199;28;19921;-64
2024/02/10 14:29:34;;;;;;;;;;;11.30;99.90;;;;;;5033066;28;19925;-64
2024/02/10 14:32:20;;;;;;;;;;;11.30;99.90;;;;;;5034211;28;19925;-64
2024/02/10 14:35:19;;;;;;;;;;;11.30;99.90;;;;;;5006146;28;19931;-64
2024/02/10 14:38:07;;;;;;;;;;;11.20;99.90;;;;;;5019239;28;19928;-64
2024/02/10 14:40:40;;;;;;;;;;;11.30;99.90;;;;;;5031917;28;19932;-64
2024/02/10 14:43:12;;;;;;;;;;;11.30;99.90;;;;;;5032994;28;20020;-64
2024/02/10 14:45:44;;;;;;;;;;;11.30;99.90;;;;;;5032298;28;19921;-64
2024/02/10 14:48:15;;;;;;;;;;;11.20;99.90;;;;;;5035340;28;19983;-64
2024/02/10 14:50:48;;;;;;;;;;;11.30;99.90;;;;;;5009972;28;19932;-64
2024/02/10 14:53:30;;;;;;;;;;;11.20;99.90;;;;;;5013331;28;19956;-64
2024/02/10 14:56:09;;;;;;;;;;;11.30;99.90;;;;;;5028264;28;19986;-64
2024/02/10 14:58:44;;;;;;;;;;;11.20;99.90;;;;;;5033777;28;19929;-64
2024/02/10 15:01:15;;;;;;;;;;;11.20;99.90;;;;;;5014519;28;19943;-64
2024/02/10 15:03:47;;;;;;;;;;;11.10;99.90;;;;;;5032873;28;20005;-64
2024/02/10 15:06:19;;;;;;;;;;;11.00;99.90;;;;;;5030193;28;19953;-64
2024/02/10 15:08:51;;;;;;;;;;;10.90;99.90;;;;;;5016151;28;19925;-64
2024/02/10 15:11:24;;;;;;;;;;;10.90;99.90;;;;;;5014297;28;19925;-65
2024/02/10 15:13:56;;;;;;;;;;;10.90;99.90;;;;;;5031387;28;20313;-68
2024/02/10 15:16:28;;;;;;;;;;;10.80;99.90;;;;;;5032703;28;20018;-64
2024/02/10 15:18:59;;;;;;;;;;;10.80;99.90;;;;;;5029812;28;19936;-63
2024/02/10 15:21:33;;;;;;;;;;;10.80;99.90;;;;;;5033261;28;19982;-64